Time;durP1;ratioP1;P1;durP2;ratioP2;P2;SDS_P1;SDS_P2;PMS_P1;PMS_P2;Temp;Humidity;BMP_temperature;BMP_pressure;BME280_temperature;BME280_humidity;BME280_pressure;Samples;Min_cycle;Max_cycle;Signal;HPM_P1;HPM_P2
2022/06/02 00:01:40;;;;;;;4.75;4.35;;;12.50;99.90;;;;;;5015298;28;20171;-83
2022/06/02 00:04:19;;;;;;;6.88;4.88;;;12.40;99.90;;;;;;5015288;28;20211;-82
2022/06/02 00:07:03;;;;;;;7.50;4.53;;;12.40;99.90;;;;;;5013948;28;20176;-82
2022/06/02 00:09:52;;;;;;;7.55;4.20;;;12.20;99.90;;;;;;5013916;28;20708;-83
2022/06/02 00:12:26;;;;;;;7.57;5.00;;;12.20;99.90;;;;;;5014934;28;20185;-83
2022/06/02 00:15:12;;;;;;;5.35;4.07;;;12.30;99.90;;;;;;5013783;28;20176;-83
2022/06/02 00:18:02;;;;;;;5.80;5.07;;;12.00;99.90;;;;;;5013654;28;20216;-82
2022/06/02 00:20:55;;;;;;;4.90;4.40;;;12.10;99.90;;;;;;5014915;28;20167;-80
2022/06/02 00:23:30;;;;;;;5.97;4.32;;;12.20;99.90;;;;;;5014832;28;20169;-82
2022/06/02 00:26:07;;;;;;;7.10;4.70;;;12.20;99.90;;;;;;5013907;28;20230;-82
2022/06/02 00:29:04;;;;;;;5.65;4.57;;;12.10;99.90;;;;;;5014711;28;20188;-82
2022/06/02 00:31:36;;;;;;;6.72;4.78;;;12.10;99.90;;;;;;5013414;28;20172;-82
2022/06/02 00:34:34;;;;;;;6.57;4.70;;;12.00;99.90;;;;;;5013254;28;20178;-81
2022/06/02 00:37:08;;;;;;;5.18;4.78;;;11.90;99.90;;;;;;5014081;28;20200;-83
2022/06/02 00:39:34;;;;;;;5.50;4.70;;;12.10;99.90;;;;;;5013409;28;20599;-82
2022/06/02 00:42:03;;;;;;;5.45;4.38;;;12.20;99.90;;;;;;5014615;28;20172;-83
2022/06/02 00:44:38;;;;;;;5.13;4.53;;;12.20;99.90;;;;;;5015003;28;20176;-83
2022/06/02 00:47:26;;;;;;;5.13;4.63;;;12.10;99.90;;;;;;5014590;28;20171;-83
2022/06/02 00:50:13;;;;;;;5.57;4.75;;;12.00;99.90;;;;;;5012907;28;20199;-82
2022/06/02 00:53:04;;;;;;;5.60;4.95;;;12.00;99.90;;;;;;5013231;28;20180;-82
2022/06/02 00:58:44;;;;;;;6.72;4.53;;;12.00;99.90;;;;;;5014252;28;20223;-82
2022/06/02 01:01:18;;;;;;;5.10;4.63;;;12.00;99.90;;;;;;5014367;28;20201;-83
2022/06/02 01:03:47;;;;;;;6.13;5.63;;;11.80;99.90;;;;;;5012722;28;20211;-82
2022/06/02 01:06:28;;;;;;;9.57;5.43;;;11.70;99.90;;;;;;5014089;28;20164;-82
2022/06/02 01:09:05;;;;;;;7.30;5.05;;;11.70;99.90;;;;;;5014233;28;20192;-82
2022/06/02 01:11:50;;;;;;;8.73;5.60;;;11.70;99.90;;;;;;5012335;28;20204;-82
2022/06/02 01:14:16;;;;;;;6.18;5.20;;;11.90;99.90;;;;;;5014048;28;20199;-82
2022/06/02 01:17:01;;;;;;;5.07;4.68;;;12.00;99.90;;;;;;5013795;28;20200;-83
2022/06/02 01:19:58;;;;;;;6.13;4.95;;;12.10;99.90;;;;;;5012327;28;20195;-82
2022/06/02 01:22:35;;;;;;;5.25;4.85;;;12.00;99.90;;;;;;5013885;28;20172;-82
2022/06/02 01:25:01;;;;;;;6.10;4.65;;;12.00;99.90;;;;;;5012469;28;20172;-84
2022/06/02 01:27:54;;;;;;;10.65;5.65;;;12.00;99.90;;;;;;5012804;28;20177;-83
2022/06/02 01:30:37;;;;;;;9.68;5.70;;;11.90;99.90;;;;;;5012466;28;20633;-83
2022/06/02 01:33:15;;;;;;;5.38;4.93;;;11.80;99.90;;;;;;5012056;28;20199;-83
2022/06/02 01:36:02;;;;;;;6.07;5.60;;;11.70;99.90;;;;;;5012542;28;20572;-82
2022/06/02 01:38:46;;;;;;;6.00;5.47;;;11.70;99.90;;;;;;5013676;28;20600;-82
2022/06/02 01:41:44;;;;;;;6.35;5.75;;;11.60;99.90;;;;;;5013542;28;20625;-81
2022/06/02 01:44:27;;;;;;;5.95;5.40;;;11.50;99.90;;;;;;5013580;28;20251;-83
2022/06/02 01:47:28;;;;;;;6.40;5.72;;;11.60;99.90;;;;;;5012662;28;20168;-83
2022/06/02 01:50:21;;;;;;;5.70;5.20;;;11.30;99.90;;;;;;5013459;28;20199;-83
2022/06/02 01:53:07;;;;;;;9.73;5.35;;;11.00;99.90;;;;;;5013533;28;20166;-82
2022/06/02 01:55:39;;;;;;;5.88;5.28;;;11.10;99.90;;;;;;5012930;28;20174;-82
2022/06/02 01:58:28;;;;;;;5.97;5.47;;;11.30;99.90;;;;;;5013261;28;20239;-83
2022/06/02 02:01:12;;;;;;;10.10;6.05;;;11.50;99.90;;;;;;5013348;28;20196;-82
2022/06/02 02:04:10;;;;;;;6.43;5.90;;;11.50;99.90;;;;;;5011649;28;20190;-82
2022/06/02 02:07:13;;;;;;;5.88;5.38;;;11.40;99.90;;;;;;5011847;28;20247;-82
2022/06/02 02:10:15;;;;;;;5.88;5.38;;;11.40;99.90;;;;;;5012730;28;20222;-83
2022/06/02 02:12:49;;;;;;;9.25;5.50;;;11.40;99.90;;;;;;5012790;28;20584;-82
2022/06/02 02:15:26;;;;;;;5.68;4.88;;;11.30;99.90;;;;;;5013135;28;20540;-82
2022/06/02 02:18:21;;;;;;;7.65;5.03;;;11.20;99.90;;;;;;5012845;28;20660;-82
2022/06/02 02:21:14;;;;;;;5.78;5.22;;;11.30;99.90;;;;;;5011551;28;20175;-83
2022/06/02 02:24:07;;;;;;;6.47;5.88;;;11.30;99.90;;;;;;5011954;28;20744;-82
2022/06/02 02:26:36;;;;;;;5.60;5.10;;;11.50;99.90;;;;;;5013075;28;20169;-82
2022/06/02 02:29:18;;;;;;;7.85;6.18;;;11.50;99.90;;;;;;5012794;28;20193;-82
2022/06/02 02:32:07;;;;;;;8.38;6.80;;;11.30;99.90;;;;;;5012861;28;20200;-82
2022/06/02 02:34:52;;;;;;;10.60;5.70;;;11.40;99.90;;;;;;5011677;28;20168;-82
2022/06/02 02:37:25;;;;;;;7.05;6.28;;;11.10;99.90;;;;;;5011571;28;20207;-81
2022/06/02 02:39:56;;;;;;;12.57;7.05;;;11.20;99.90;;;;;;5011828;28;20188;-82
2022/06/02 02:42:28;;;;;;;8.15;7.35;;;11.10;99.90;;;;;;5012949;28;20255;-82
2022/06/02 02:44:56;;;;;;;7.22;6.45;;;11.00;99.90;;;;;;5012954;28;20172;-82
2022/06/02 02:47:37;;;;;;;12.45;7.53;;;10.90;99.90;;;;;;5011685;28;20222;-82
2022/06/02 02:50:10;;;;;;;11.35;6.50;;;10.90;99.90;;;;;;5013076;28;20187;-82
2022/06/02 02:52:45;;;;;;;8.38;6.47;;;10.80;99.90;;;;;;5012558;28;20188;-82
2022/06/02 02:55:26;;;;;;;11.27;7.18;;;10.80;99.90;;;;;;5011278;28;20573;-82
2022/06/02 02:58:06;;;;;;;8.27;7.03;;;10.80;99.90;;;;;;5012584;28;20216;-82
2022/06/02 03:00:44;;;;;;;12.70;8.50;;;10.90;99.90;;;;;;5014273;28;20211;-82
2022/06/02 03:03:33;;;;;;;8.45;7.65;;;11.00;99.90;;;;;;5016298;28;20642;-82
2022/06/02 03:06:18;;;;;;;8.45;7.65;;;11.00;99.90;;;;;;5015221;28;20630;-82
2022/06/02 03:09:02;;;;;;;8.48;7.40;;;11.10;99.90;;;;;;5016207;28;20271;-81
2022/06/02 03:11:52;;;;;;;11.48;7.43;;;11.20;99.90;;;;;;5015164;28;20184;-82
2022/06/02 03:14:25;;;;;;;9.27;8.45;;;11.10;99.90;;;;;;5015313;28;20203;-82
2022/06/02 03:17:16;;;;;;;10.73;7.53;;;10.90;99.90;;;;;;5016135;28;20554;-81
2022/06/02 03:20:11;;;;;;;9.15;7.25;;;10.70;99.90;;;;;;5016349;28;20203;-82
2022/06/02 03:22:57;;;;;;;9.50;7.75;;;10.70;99.90;;;;;;5018398;28;20183;-81
2022/06/02 03:25:38;;;;;;;8.40;7.30;;;10.90;99.90;;;;;;5017115;28;20227;-82
2022/06/02 03:28:15;;;;;;;8.38;7.40;;;11.10;99.90;;;;;;5027356;28;20196;-81
2022/06/02 03:30:41;;;;;;;9.40;8.52;;;10.90;99.90;;;;;;5032288;28;20218;-81
2022/06/02 03:33:30;;;;;;;9.48;7.28;;;10.70;99.90;;;;;;5032554;28;20193;-81
2022/06/02 03:36:08;;;;;;;13.13;7.55;;;10.70;99.90;;;;;;5023113;28;20169;-82
2022/06/02 03:38:52;;;;;;;8.80;8.00;;;11.00;99.90;;;;;;5016588;28;20212;-82
2022/06/02 03:41:43;;;;;;;8.20;7.35;;;11.00;99.90;;;;;;5016345;28;20179;-82
2022/06/02 03:44:29;;;;;;;7.90;7.13;;;11.10;99.90;;;;;;5014812;28;20189;-82
2022/06/02 03:47:10;;;;;;;8.30;7.50;;;11.00;99.90;;;;;;5014103;28;20176;-82
2022/06/02 03:50:07;;;;;;;10.85;6.85;;;10.90;99.90;;;;;;5015294;28;20188;-82
2022/06/02 03:52:57;;;;;;;7.32;6.72;;;11.00;99.90;;;;;;5015653;28;20586;-81
2022/06/02 03:55:35;;;;;;;11.23;8.60;;;10.80;99.90;;;;;;5014550;28;20184;-82
2022/06/02 03:58:19;;;;;;;7.95;7.22;;;10.70;99.90;;;;;;5015345;28;20700;-81
2022/06/02 04:00:53;;;;;;;7.60;7.00;;;10.70;99.90;;;;;;5014325;28;20645;-81
2022/06/02 04:04:04;;;;;;;9.82;7.97;;;10.60;99.90;;;;;;5014718;28;20180;-81
2022/06/02 04:06:48;;;;;;;10.18;9.15;;;10.70;99.90;;;;;;5029470;28;20228;-81
2022/06/02 04:09:32;;;;;;;12.10;8.35;;;11.10;99.90;;;;;;5027613;28;20195;-81
2022/06/02 04:15:23;;;;;;;8.68;7.88;;;11.90;99.90;;;;;;5015571;28;20223;-81
2022/06/02 04:18:12;;;;;;;17.85;8.07;;;12.20;99.90;;;;;;5013280;28;20330;-81
2022/06/02 04:20:53;;;;;;;10.75;7.68;;;12.50;99.90;;;;;;5013634;28;20181;-81
2022/06/02 04:23:53;;;;;;;9.25;7.50;;;12.60;99.90;;;;;;5013415;28;20168;-81
2022/06/02 04:26:31;;;;;;;9.80;8.63;;;12.50;99.90;;;;;;5013087;28;20654;-81
2022/06/02 04:29:32;;;;;;;14.00;7.97;;;12.20;99.90;;;;;;5014381;28;20196;-82
2022/06/02 04:32:04;;;;;;;10.75;7.72;;;12.20;99.90;;;;;;5014532;28;20178;-81
2022/06/02 04:34:49;;;;;;;11.70;9.40;;;12.30;99.90;;;;;;5012961;28;20177;-81
2022/06/02 04:37:52;;;;;;;10.68;8.98;;;12.40;99.90;;;;;;5013379;28;20803;-81
2022/06/02 04:40:26;;;;;;;10.73;8.95;;;12.70;99.90;;;;;;4995814;28;20176;-81
2022/06/02 04:42:54;;;;;;;13.70;8.23;;;12.70;99.90;;;;;;5010476;28;20192;-79
2022/06/02 04:45:26;;;;;;;13.90;8.52;;;12.60;99.90;;;;;;5014613;28;20173;-81
2022/06/02 04:48:14;;;;;;;10.60;8.23;;;12.60;99.90;;;;;;5014481;28;20160;-82
2022/06/02 04:50:46;;;;;;;9.68;7.80;;;12.60;99.90;;;;;;5003090;28;20212;-81
2022/06/02 04:53:29;;;;;;;11.40;9.40;;;12.60;99.90;;;;;;5012812;28;20692;-83
2022/06/02 04:56:07;;;;;;;17.15;8.82;;;12.60;99.90;;;;;;5014221;28;20252;-83
2022/06/02 04:59:10;;;;;;;13.27;9.52;;;12.60;99.90;;;;;;5014001;28;20212;-82
2022/06/02 05:01:42;;;;;;;11.38;9.50;;;12.80;99.90;;;;;;5012927;28;20168;-82
2022/06/02 05:04:22;;;;;;;11.63;9.35;;;13.00;99.90;;;;;;5013563;28;20180;-82
2022/06/02 05:07:08;;;;;;;14.43;8.80;;;13.00;99.90;;;;;;5013725;28;20176;-82
2022/06/02 05:09:55;;;;;;;12.63;8.75;;;13.20;99.90;;;;;;5012309;28;20613;-82
2022/06/02 05:12:27;;;;;;;11.73;9.88;;;13.50;99.90;;;;;;5013878;28;20188;-82
2022/06/02 05:15:20;;;;;;;23.80;11.95;;;13.70;99.90;;;;;;5013640;28;20172;-82
2022/06/02 05:18:13;;;;;;;12.25;10.88;;;13.70;99.90;;;;;;5013312;28;20216;-81
2022/06/02 05:20:39;;;;;;;14.95;10.77;;;14.00;99.90;;;;;;5013491;28;20569;-82
2022/06/02 05:23:22;;;;;;;17.80;11.60;;;14.10;99.90;;;;;;5011238;28;20176;-83
2022/06/02 05:26:12;;;;;;;19.65;11.80;;;14.00;99.90;;;;;;5011951;28;20171;-83
2022/06/02 05:28:50;;;;;;;21.85;11.95;;;14.00;99.90;;;;;;5016305;28;20751;-82
2022/06/02 05:31:28;;;;;;;19.60;11.80;;;14.10;99.90;;;;;;5013719;28;20184;-81
2022/06/02 05:34:12;;;;;;;26.38;12.98;;;14.20;99.90;;;;;;5014549;28;20223;-82
2022/06/02 05:36:57;;;;;;;28.17;12.95;;;14.30;99.90;;;;;;5012965;28;20172;-84
2022/06/02 05:39:41;;;;;;;19.73;11.25;;;14.20;99.90;;;;;;5013844;28;20207;-84
2022/06/02 05:42:27;;;;;;;33.17;13.48;;;14.30;99.90;;;;;;5012991;28;20172;-84
2022/06/02 05:45:09;;;;;;;21.63;11.65;;;14.60;99.90;;;;;;5012412;28;20534;-80
2022/06/02 05:47:41;;;;;;;44.58;13.60;;;14.70;99.90;;;;;;5011822;28;20532;-81
2022/06/02 05:50:40;;;;;;;25.10;13.80;;;14.60;99.90;;;;;;5013069;28;20168;-81
2022/06/02 05:53:14;;;;;;;31.67;14.07;;;14.60;99.90;;;;;;5009016;28;20653;-80
2022/06/02 05:56:03;;;;;;;21.02;13.88;;;14.50;99.90;;;;;;5011649;28;20217;-81
2022/06/02 05:58:33;;;;;;;23.20;13.20;;;14.50;99.90;;;;;;5012744;28;20270;-81
2022/06/02 06:01:16;;;;;;;17.50;13.25;;;14.60;99.90;;;;;;5011365;28;20176;-81
2022/06/02 06:04:03;;;;;;;15.95;12.70;;;14.40;99.90;;;;;;5011588;28;20234;-83
2022/06/02 06:06:52;;;;;;;25.35;13.52;;;14.40;99.90;;;;;;5012861;28;20183;-82
2022/06/02 06:09:24;;;;;;;20.90;13.50;;;14.60;99.90;;;;;;5010986;28;20212;-82
2022/06/02 06:12:21;;;;;;;14.73;12.68;;;14.70;99.90;;;;;;5014566;28;20184;-82
2022/06/02 06:15:10;;;;;;;16.95;12.57;;;14.80;99.90;;;;;;5011284;28;20176;-83
2022/06/02 06:18:00;;;;;;;14.30;12.40;;;14.70;99.90;;;;;;5014881;28;20212;-87
2022/06/02 06:21:03;;;;;;;15.95;11.13;;;14.60;99.90;;;;;;5012197;28;20529;-82
2022/06/02 06:24:10;;;;;;;12.10;10.10;;;14.80;99.90;;;;;;5012448;28;20168;-82
2022/06/02 06:26:58;;;;;;;14.05;11.77;;;14.80;99.90;;;;;;5011277;28;20180;-82
2022/06/02 06:29:52;;;;;;;15.57;11.65;;;14.80;99.90;;;;;;5012042;28;20258;-84
2022/06/02 06:32:55;;;;;;;18.95;12.95;;;15.00;99.90;;;;;;5011197;28;20218;-87
2022/06/02 06:35:37;;;;;;;11.52;10.43;;;15.00;99.90;;;;;;5016177;28;20164;-85
2022/06/02 06:38:26;;;;;;;10.55;8.77;;;15.10;99.90;;;;;;5016513;28;20216;-81
2022/06/02 06:41:25;;;;;;;7.25;6.55;;;15.10;99.90;;;;;;5014958;28;20177;-84
2022/06/02 06:44:03;;;;;;;12.43;9.52;;;14.90;99.90;;;;;;5019669;28;20203;-84
2022/06/02 06:46:40;;;;;;;13.32;7.38;;;15.10;99.90;;;;;;5016173;28;20271;-82
2022/06/02 06:49:17;;;;;;;11.43;9.20;;;15.10;99.90;;;;;;5018336;28;20602;-81
2022/06/02 06:52:20;;;;;;;8.43;6.50;;;15.40;99.90;;;;;;5017732;28;20164;-79
2022/06/02 06:55:10;;;;;;;7.97;7.18;;;15.60;99.90;;;;;;5016122;28;20176;-80
2022/06/02 06:57:58;;;;;;;13.60;5.78;;;16.00;99.90;;;;;;5016980;28;20200;-82
2022/06/02 07:00:35;;;;;;;29.30;7.85;;;16.90;99.90;;;;;;5014994;28;20211;-89
2022/06/02 07:03:18;;;;;;;9.70;7.20;;;17.30;99.90;;;;;;5016120;28;20291;-81
2022/06/02 07:05:48;;;;;;;9.70;7.47;;;18.30;99.90;;;;;;5014804;28;20274;-81
2022/06/02 07:08:28;;;;;;;12.80;8.35;;;18.50;99.90;;;;;;5016439;28;20224;-84
2022/06/02 07:12:50;;;;;;;8.60;7.60;;;19.10;99.90;;;;;;5020651;28;20165;-82
2022/06/02 07:14:06;;;;;;;10.93;7.75;;;19.50;99.90;;;;;;5019623;28;20505;-83
2022/06/02 07:17:09;;;;;;;10.90;7.22;;;21.00;99.90;;;;;;5017478;28;20169;-83
2022/06/02 07:20:05;;;;;;;11.45;7.70;;;22.30;99.90;;;;;;5021494;28;20270;-82
2022/06/02 07:22:57;;;;;;;7.15;6.50;;;22.30;99.90;;;;;;5009311;28;20181;-79
2022/06/02 07:25:40;;;;;;;7.47;5.95;;;21.60;99.90;;;;;;5020695;28;20709;-80
2022/06/02 07:28:20;;;;;;;12.95;5.45;;;21.00;99.90;;;;;;5014593;28;20596;-83
2022/06/02 07:30:52;;;;;;;7.45;5.15;;;20.60;99.90;;;;;;5018421;28;20172;-85
2022/06/02 07:33:37;;;;;;;8.52;5.82;;;21.20;99.90;;;;;;5021346;28;20181;-87
2022/06/02 07:36:38;;;;;;;12.30;5.22;;;22.10;99.90;;;;;;5019934;28;20164;-93
2022/06/02 07:39:16;;;;;;;6.15;4.28;;;21.70;99.90;;;;;;5018458;28;20212;-86
2022/06/02 07:42:05;;;;;;;5.60;4.90;;;21.10;99.90;;;;;;5016851;28;20179;-85
2022/06/02 07:44:56;;;;;;;7.97;4.45;;;20.50;99.90;;;;;;4999233;28;20181;-86
2022/06/02 07:47:45;;;;;;;7.28;4.50;;;19.90;99.90;;;;;;5001382;28;20212;-85
2022/06/02 07:50:22;;;;;;;5.47;4.97;;;20.20;99.90;;;;;;5008044;28;20184;-85
2022/06/02 07:53:13;;;;;;;9.88;5.15;;;20.30;99.90;;;;;;5009866;28;20180;-86
2022/06/02 07:55:41;;;;;;;11.38;4.35;;;20.00;99.90;;;;;;5003158;28;20177;-85
2022/06/02 07:58:42;;;;;;;8.40;4.32;;;20.00;99.90;;;;;;5006953;28;20224;-85
2022/06/02 08:01:16;;;;;;;5.05;4.55;;;19.30;99.90;;;;;;4937761;29;20271;-85
2022/06/02 08:03:54;;;;;;;14.95;6.80;;;19.10;99.90;;;;;;5000003;28;20230;-84
2022/06/02 08:06:42;;;;;;;8.57;4.43;;;19.40;99.90;;;;;;5010090;28;20275;-92
2022/06/02 08:09:32;;;;;;;6.45;3.55;;;19.00;99.90;;;;;;5001455;28;20800;-89
2022/06/02 08:11:58;;;;;;;4.28;3.88;;;18.80;99.90;;;;;;5003723;28;20207;-92
2022/06/02 08:14:35;;;;;;;5.10;3.85;;;18.50;99.90;;;;;;5017377;28;20172;-85
2022/06/02 08:17:20;;;;;;;8.88;3.88;;;18.50;99.90;;;;;;5013687;28;20203;-85
2022/06/02 08:20:18;;;;;;;15.32;3.70;;;18.20;99.90;;;;;;5011778;28;20185;-85
2022/06/02 08:23:02;;;;;;;17.17;5.07;;;17.90;99.90;;;;;;5013806;28;20179;-87
2022/06/02 08:25:43;;;;;;;6.70;3.22;;;17.80;99.90;;;;;;5013242;28;20226;-84
2022/06/02 08:28:33;;;;;;;7.05;4.00;;;17.90;99.90;;;;;;5012014;28;20311;-85
2022/06/02 08:30:58;;;;;;;5.82;4.00;;;18.10;99.90;;;;;;5013409;28;20176;-83
2022/06/02 08:33:49;;;;;;;17.35;3.88;;;18.10;99.90;;;;;;5010618;28;21269;-91
2022/06/02 08:36:29;;;;;;;7.35;4.80;;;18.40;99.90;;;;;;5013077;28;20263;-83
2022/06/02 08:39:02;;;;;;;4.30;3.90;;;18.80;99.90;;;;;;5013612;28;20203;-85
2022/06/02 08:41:58;;;;;;;23.58;4.30;;;18.70;99.90;;;;;;5013002;28;20239;-84
2022/06/02 08:44:59;;;;;;;5.90;2.97;;;18.60;99.90;;;;;;5014621;28;20222;-85
2022/06/02 08:47:50;;;;;;;3.85;3.45;;;18.50;99.90;;;;;;4964968;28;20196;-89
2022/06/02 08:50:37;;;;;;;7.63;3.22;;;18.40;99.90;;;;;;4997147;28;20648;-89
2022/06/02 08:53:21;;;;;;;4.13;3.40;;;18.30;99.90;;;;;;4999669;28;20178;-86
2022/06/02 08:56:32;;;;;;;10.35;3.65;;;18.30;99.90;;;;;;5012748;28;20672;-86
2022/06/02 08:59:07;;;;;;;19.63;4.85;;;18.70;99.90;;;;;;4992233;28;20216;-87
2022/06/02 09:02:11;;;;;;;22.98;4.10;;;19.00;99.90;;;;;;5010207;28;20184;-81
2022/06/02 09:05:13;;;;;;;9.77;3.85;;;19.00;99.90;;;;;;5013219;28;20160;-83
2022/06/02 09:08:00;;;;;;;4.88;3.80;;;18.70;99.90;;;;;;5008787;28;20265;-83
2022/06/02 09:10:34;;;;;;;5.78;3.70;;;18.60;99.90;;;;;;5011760;28;20181;-81
2022/06/02 09:13:28;;;;;;;5.10;3.67;;;18.10;99.90;;;;;;5011319;28;20233;-82
2022/06/02 09:15:56;;;;;;;8.30;5.10;;;17.90;99.90;;;;;;5013052;28;20176;-83
2022/06/02 09:18:49;;;;;;;3.95;3.65;;;18.10;99.90;;;;;;5012091;28;20216;-83
2022/06/02 09:21:29;;;;;;;7.50;3.80;;;18.30;99.90;;;;;;4992478;28;20173;-83
2022/06/02 09:24:16;;;;;;;7.20;3.67;;;17.90;99.90;;;;;;4998863;28;20178;-88
2022/06/02 09:27:35;;;;;;;16.20;4.25;;;17.90;99.90;;;;;;5015416;28;20179;-87
2022/06/02 09:30:08;;;;;;;3.40;3.13;;;17.70;99.90;;;;;;5013918;28;20192;-84
2022/06/02 09:32:36;;;;;;;6.38;3.17;;;18.30;99.90;;;;;;5010647;28;20172;-83
2022/06/02 09:35:21;;;;;;;7.82;3.13;;;18.50;99.90;;;;;;5030660;28;20183;-84
2022/06/02 09:38:11;;;;;;;15.05;3.42;;;18.50;99.90;;;;;;5029329;28;20203;-84
2022/06/02 09:40:45;;;;;;;8.52;3.85;;;18.60;99.90;;;;;;5010131;28;20168;-83
2022/06/02 09:43:39;;;;;;;6.63;3.13;;;18.40;99.90;;;;;;5012802;28;20714;-83
2022/06/02 09:46:22;;;;;;;3.22;2.92;;;18.20;99.90;;;;;;4999837;28;20177;-84
2022/06/02 09:49:10;;;;;;;4.65;2.80;;;18.50;99.90;;;;;;4992878;28;20189;-85
2022/06/02 09:52:03;;;;;;;3.45;2.55;;;18.80;99.90;;;;;;4993006;28;20188;-88
2022/06/02 09:54:37;;;;;;;3.85;3.00;;;19.00;99.90;;;;;;5010387;28;20327;-88
2022/06/02 10:00:32;;;;;;;11.27;3.75;;;18.70;99.90;;;;;;5017348;28;20175;-89
2022/06/02 10:03:12;;;;;;;4.47;3.05;;;19.00;99.90;;;;;;5006152;28;20185;-86
2022/06/02 10:05:53;;;;;;;7.90;3.50;;;19.10;99.90;;;;;;5002318;28;20172;-89
2022/06/02 10:08:21;;;;;;;3.20;2.90;;;19.20;99.90;;;;;;5010748;28;20199;-85
2022/06/02 10:11:14;;;;;;;5.57;3.33;;;19.30;99.90;;;;;;5013161;28;20192;-85
2022/06/02 10:13:43;;;;;;;4.65;3.10;;;19.10;99.90;;;;;;5009765;28;20176;-84
2022/06/02 10:16:33;;;;;;;7.03;3.00;;;19.00;99.90;;;;;;5009282;28;20188;-87
2022/06/02 10:19:23;;;;;;;5.30;3.08;;;18.80;99.90;;;;;;5009801;28;20711;-85
2022/06/02 10:21:52;;;;;;;5.38;3.10;;;18.90;99.90;;;;;;5003657;28;20185;-84
2022/06/02 10:24:36;;;;;;;3.10;2.90;;;18.70;99.90;;;;;;4991081;28;20272;-85
2022/06/02 10:27:40;;;;;;;11.52;2.70;;;18.60;99.90;;;;;;4997298;28;20502;-83
2022/06/02 10:30:41;;;;;;;3.22;2.92;;;18.90;99.90;;;;;;5009883;28;20652;-83
2022/06/02 10:33:11;;;;;;;3.88;2.80;;;19.20;99.90;;;;;;4990721;28;20626;-83
2022/06/02 10:35:55;;;;;;;2.97;2.75;;;19.20;99.90;;;;;;4991908;28;20181;-86
2022/06/02 10:38:48;;;;;;;5.57;2.58;;;19.50;99.90;;;;;;4992072;28;20287;-85
2022/06/02 10:41:30;;;;;;;3.65;3.30;;;20.00;99.90;;;;;;4992887;28;20169;-81
2022/06/02 10:44:19;;;;;;;4.43;2.95;;;20.00;99.90;;;;;;4990784;28;20192;-83
2022/06/02 10:47:16;;;;;;;12.45;2.83;;;20.30;99.90;;;;;;4990313;28;20189;-82
2022/06/02 10:50:10;;;;;;;4.03;2.60;;;20.60;99.90;;;;;;4990309;28;20228;-81
2022/06/02 10:53:19;;;;;;;2.88;2.53;;;20.70;99.90;;;;;;4991373;28;20188;-80
2022/06/02 10:56:10;;;;;;;6.47;2.90;;;20.50;99.90;;;;;;4972430;28;20561;-81
2022/06/02 10:58:47;;;;;;;5.25;2.40;;;20.20;99.90;;;;;;4989829;28;20626;-81
2022/06/02 11:01:36;;;;;;;10.70;2.50;;;20.10;99.90;;;;;;4991641;28;20173;-81
2022/06/02 11:04:17;;;;;;;2.92;2.25;;;19.80;99.90;;;;;;4991579;28;20173;-82
2022/06/02 11:06:57;;;;;;;5.10;2.40;;;19.80;99.90;;;;;;4991278;28;20192;-82
2022/06/02 11:09:48;;;;;;;3.28;2.97;;;19.90;99.90;;;;;;5033811;23;20385;-81
2022/06/02 11:13:03;;;;;;;2.70;2.22;;;19.90;99.90;;;;;;5012593;28;20175;-83
2022/06/02 11:15:55;;;;;;;2.80;2.60;;;19.80;99.90;;;;;;4980068;28;20183;-82
2022/06/02 11:18:36;;;;;;;4.50;2.92;;;19.70;99.90;;;;;;5029830;28;20216;-82
2022/06/02 11:21:21;;;;;;;9.23;1.90;;;19.90;99.90;;;;;;5031389;28;20179;-82
2022/06/02 11:24:24;;;;;;;8.85;2.10;;;19.90;99.90;;;;;;5034511;28;20532;-84
2022/06/02 11:27:02;;;;;;;6.68;2.20;;;20.00;99.90;;;;;;5032419;28;20186;-81
2022/06/02 11:30:05;;;;;;;2.95;2.22;;;19.90;99.90;;;;;;5031916;28;20200;-81
2022/06/02 11:32:54;;;;;;;5.88;2.35;;;19.80;99.90;;;;;;5033595;28;20175;-83
2022/06/02 11:35:58;;;;;;;3.80;2.40;;;19.80;99.90;;;;;;5034029;28;20164;-81
2022/06/02 11:39:01;;;;;;;7.45;2.53;;;19.90;99.90;;;;;;4947763;29;20230;-86
2022/06/02 11:41:30;;;;;;;5.50;3.00;;;19.60;99.90;;;;;;5050153;28;20216;-89
2022/06/02 11:44:20;;;;;;;3.20;3.00;;;19.60;99.90;;;;;;5034831;28;20254;-84
2022/06/02 11:47:06;;;;;;;2.80;2.60;;;19.50;99.90;;;;;;5034057;28;20259;-85
2022/06/02 11:49:35;;;;;;;2.65;2.45;;;19.50;99.90;;;;;;5016177;28;20192;-86
2022/06/02 11:52:20;;;;;;;5.10;3.05;;;19.80;99.90;;;;;;5016629;28;20232;-84
2022/06/02 11:55:14;;;;;;;2.60;2.40;;;19.70;99.90;;;;;;5016365;28;20583;-86
2022/06/02 11:58:11;;;;;;;28.13;2.90;;;19.80;99.90;;;;;;5016444;28;20669;-85
2022/06/02 12:01:02;;;;;;;3.53;2.33;;;19.90;99.90;;;;;;5034627;28;20199;-85
2022/06/02 12:04:06;;;;;;;2.53;2.30;;;19.80;99.90;;;;;;5033303;28;20628;-84
2022/06/02 12:06:52;;;;;;;2.88;2.38;;;19.80;99.90;;;;;;5032641;28;20283;-85
2022/06/02 12:09:55;;;;;;;5.50;2.45;;;19.70;99.90;;;;;;5012557;28;20319;-84
2022/06/02 12:12:24;;;;;;;12.02;2.50;;;19.90;99.90;;;;;;4999422;28;20603;-91
2022/06/02 12:15:03;;;;;;;2.40;2.03;;;20.00;99.90;;;;;;5016868;28;20175;-91
2022/06/02 12:17:35;;;;;;;10.43;2.00;;;20.20;99.90;;;;;;4999542;28;20588;-90
2022/06/02 12:20:06;;;;;;;5.57;2.85;;;20.30;99.90;;;;;;4999556;28;20251;-90
2022/06/02 12:22:32;;;;;;;1.92;1.83;;;20.30;99.90;;;;;;4999380;28;20176;-91
2022/06/02 12:25:22;;;;;;;3.53;2.53;;;20.10;99.90;;;;;;4999061;28;20168;-91
2022/06/02 12:28:09;;;;;;;7.60;2.42;;;20.10;99.90;;;;;;4999176;28;20695;-89
2022/06/02 12:31:03;;;;;;;155.77;11.15;;;20.00;99.90;;;;;;4999493;28;20235;-91
2022/06/02 12:34:09;;;;;;;12.85;2.70;;;20.00;99.90;;;;;;4999461;28;20168;-92
2022/06/02 12:36:58;;;;;;;3.20;2.28;;;20.20;99.90;;;;;;5009778;28;20168;-85
2022/06/02 12:39:57;;;;;;;2.58;2.10;;;20.20;99.90;;;;;;5029575;28;20212;-84
2022/06/02 12:42:36;;;;;;;2.35;2.20;;;20.30;99.90;;;;;;5016573;28;20172;-88
2022/06/02 12:45:23;;;;;;;2.70;2.50;;;20.20;99.90;;;;;;5016903;28;20173;-85
2022/06/02 12:48:04;;;;;;;2.90;2.55;;;20.50;99.90;;;;;;5016482;28;20227;-88
2022/06/02 12:50:39;;;;;;;8.98;2.13;;;20.70;99.90;;;;;;5033958;28;20192;-84
2022/06/02 12:54:03;;;;;;;4.10;2.25;;;20.70;99.90;;;;;;5031466;28;20156;-84
2022/06/02 12:56:49;;;;;;;4.75;2.08;;;20.70;99.90;;;;;;4999513;28;20176;-82
2022/06/02 12:59:53;;;;;;;9.35;2.65;;;20.90;99.90;;;;;;5033307;28;20215;-85
2022/06/02 13:03:11;;;;;;;3.92;1.77;;;20.70;99.90;;;;;;4998521;28;20180;-89
2022/06/02 13:05:49;;;;;;;4.28;2.47;;;20.80;99.90;;;;;;5012499;28;20317;-90
2022/06/02 13:08:42;;;;;;;19.48;3.35;;;20.90;99.90;;;;;;4997583;28;20211;-90
2022/06/02 13:11:13;;;;;;;4.32;3.05;;;21.00;99.90;;;;;;4998072;28;20655;-91
2022/06/02 13:14:20;;;;;;;4.45;2.28;;;20.90;99.90;;;;;;5018087;28;20243;-93
2022/06/02 13:17:30;;;;;;;3.25;2.00;;;20.90;99.90;;;;;;4976475;28;20280;-91
2022/06/02 13:20:15;;;;;;;4.63;2.10;;;21.00;99.90;;;;;;5015617;28;20204;-88
2022/06/02 13:22:54;;;;;;;11.27;2.03;;;20.80;99.90;;;;;;5015815;28;20223;-86
2022/06/02 13:26:02;;;;;;;5.55;2.08;;;21.00;99.90;;;;;;4998296;28;20211;-90
2022/06/02 13:28:45;;;;;;;10.27;2.25;;;20.90;99.90;;;;;;4998264;28;20192;-87
2022/06/02 13:31:13;;;;;;;13.57;2.40;;;20.90;99.90;;;;;;4997382;28;20510;-89
2022/06/02 13:34:06;;;;;;;2.50;2.30;;;21.10;99.90;;;;;;4997143;28;20648;-88
2022/06/02 13:37:07;;;;;;;8.07;1.98;;;21.10;99.90;;;;;;5015097;28;20180;-88
2022/06/02 13:40:18;;;;;;;11.38;2.45;;;21.10;99.90;;;;;;4997681;28;20292;-89
2022/06/02 13:43:21;;;;;;;1.95;1.80;;;21.20;99.90;;;;;;4995634;28;20176;-89
2022/06/02 13:46:07;;;;;;;15.32;2.22;;;21.20;99.90;;;;;;4997479;28;20199;-88
2022/06/02 13:48:48;;;;;;;1.85;1.75;;;21.20;99.90;;;;;;4997567;28;20228;-88
2022/06/02 13:51:51;;;;;;;5.90;2.38;;;21.10;99.90;;;;;;4997511;28;20172;-89
2022/06/02 13:57:46;;;;;;;8.40;1.73;;;21.30;99.90;;;;;;5014655;28;20310;-89
2022/06/02 14:00:50;;;;;;;5.28;2.33;;;21.40;99.90;;;;;;5014939;28;20164;-88
2022/06/02 14:03:45;;;;;;;2.60;1.70;;;21.30;99.90;;;;;;4997496;28;20532;-88
2022/06/02 14:06:20;;;;;;;2.65;1.92;;;21.40;99.90;;;;;;4997513;28;20192;-88
2022/06/02 14:09:24;;;;;;;2.17;1.98;;;21.60;99.90;;;;;;4996758;28;20223;-89
2022/06/02 14:12:27;;;;;;;2.78;1.77;;;21.60;99.90;;;;;;5002298;28;20656;-88
2022/06/02 14:15:10;;;;;;;6.13;2.45;;;21.60;99.90;;;;;;5002125;28;20221;-89
2022/06/02 14:17:59;;;;;;;5.50;1.40;;;21.60;99.90;;;;;;4998502;28;20244;-89
2022/06/02 14:20:53;;;;;;;3.67;1.50;;;21.70;99.90;;;;;;4996901;28;20267;-88
2022/06/02 14:23:19;;;;;;;2.63;1.33;;;21.70;99.90;;;;;;4996914;28;20180;-89
2022/06/02 14:26:27;;;;;;;4.32;1.70;;;21.50;99.90;;;;;;5015291;28;20199;-89
2022/06/02 14:29:21;;;;;;;1.35;1.25;;;21.50;99.90;;;;;;5016095;28;20184;-90
2022/06/02 14:31:55;;;;;;;3.70;1.55;;;21.50;99.90;;;;;;5017538;28;20175;-90